Time;durP1;ratioP1;P1;durP2;ratioP2;P2;SDS_P1;SDS_P2;PMS_P1;PMS_P2;Temp;Humidity;BMP_temperature;BMP_pressure;BME280_temperature;BME280_humidity;BME280_pressure;Samples;Min_cycle;Max_cycle;Signal;HPM_P1;HPM_P2
2023/06/28 00:01:59;;;;;;;12.35;3.20;;;;;;;21.36;79.98;101397.56;7362978;19;20011;-60
2023/06/28 00:04:26;;;;;;;7.15;3.25;;;;;;;21.39;80.00;101397.94;7362537;19;20014;-62
2023/06/28 00:06:53;;;;;;;10.38;2.95;;;;;;;21.39;80.21;101386.41;7363272;19;20015;-62
2023/06/28 00:09:20;;;;;;;11.52;2.78;;;;;;;21.35;79.86;101386.00;7363580;19;20022;-61
2023/06/28 00:11:48;;;;;;;10.18;3.03;;;;;;;21.33;80.23;101388.09;7364482;19;20019;-62
2023/06/28 00:14:15;;;;;;;11.75;3.85;;;;;;;21.31;80.25;101390.97;7362345;19;20106;-62
2023/06/28 00:16:42;;;;;;;11.85;3.40;;;;;;;21.34;80.83;101385.19;7357925;19;20078;-62
2023/06/28 00:19:09;;;;;;;11.77;3.00;;;;;;;21.34;80.82;101382.50;7358818;19;20045;-62
2023/06/28 00:21:36;;;;;;;11.63;3.35;;;;;;;21.37;80.64;101383.13;7363882;19;20034;-62
2023/06/28 00:24:04;;;;;;;8.90;3.03;;;;;;;21.36;80.75;101379.63;7360901;19;20015;-62
2023/06/28 00:26:31;;;;;;;7.07;2.83;;;;;;;21.34;80.54;101381.69;7361565;19;20190;-62
2023/06/28 00:28:58;;;;;;;11.13;3.30;;;;;;;21.33;80.50;101378.19;7362864;19;20007;-61
2023/06/28 00:31:25;;;;;;;11.13;3.95;;;;;;;21.32;81.05;101381.09;7359723;19;20037;-61
2023/06/28 00:33:53;;;;;;;9.70;3.15;;;;;;;21.30;81.32;101377.78;7339985;19;20106;-62
2023/06/28 00:36:20;;;;;;;11.15;3.58;;;;;;;21.31;81.33;101374.09;7361164;19;20495;-63
2023/06/28 00:38:47;;;;;;;9.25;3.47;;;;;;;21.32;81.24;101368.53;7364944;19;20014;-61
2023/06/28 00:41:14;;;;;;;12.20;5.18;;;;;;;21.32;81.42;101371.22;7361349;19;20014;-61
2023/06/28 00:43:42;;;;;;;10.38;3.38;;;;;;;21.38;81.17;101374.06;7361160;19;21594;-62
2023/06/28 00:46:09;;;;;;;15.32;3.83;;;;;;;21.39;80.77;101375.69;7361656;19;20021;-61
2023/06/28 00:48:37;;;;;;;8.43;3.05;;;;;;;21.37;81.29;101372.44;7361902;19;20053;-61
2023/06/28 00:51:04;;;;;;;9.63;3.55;;;;;;;21.38;81.59;101374.06;7359109;19;20086;-61
2023/06/28 00:53:32;;;;;;;9.05;3.28;;;;;;;21.41;81.13;101379.81;7362918;19;20087;-62
2023/06/28 00:55:59;;;;;;;12.32;3.67;;;;;;;21.39;80.78;101379.19;7360464;19;20040;-61
2023/06/28 00:58:26;;;;;;;10.77;3.28;;;;;;;21.38;80.71;101374.91;7365523;19;20006;-61
2023/06/28 01:00:54;;;;;;;11.60;3.28;;;;;;;21.37;81.14;101372.44;7362012;19;20025;-61
2023/06/28 01:03:21;;;;;;;12.43;3.55;;;;;;;21.37;81.21;101362.53;7363763;19;20017;-61
2023/06/28 01:05:52;;;;;;;11.48;3.55;;;;;;;21.35;81.31;101364.59;7365569;19;20003;-61
2023/06/28 01:08:20;;;;;;;12.07;3.72;;;;;;;21.37;81.15;101364.41;7367764;19;20029;-62
2023/06/28 01:10:48;;;;;;;11.90;3.90;;;;;;;21.37;81.01;101364.41;7364528;19;20502;-62
2023/06/28 01:13:16;;;;;;;12.15;3.97;;;;;;;21.36;81.29;101360.06;7362652;19;20070;-60
2023/06/28 01:15:43;;;;;;;9.02;3.58;;;;;;;21.29;81.49;101360.91;7360336;19;20025;-63
2023/06/28 01:18:11;;;;;;;13.77;3.72;;;;;;;21.26;81.84;101363.19;7362461;19;20010;-62
2023/06/28 01:20:38;;;;;;;10.30;3.80;;;;;;;21.26;81.99;101357.81;7357096;19;20067;-62
2023/06/28 01:23:06;;;;;;;11.02;3.38;;;;;;;21.26;82.11;101350.63;7352933;19;20708;-62
2023/06/28 01:25:34;;;;;;;13.57;3.65;;;;;;;21.25;81.71;101346.28;7363160;19;20018;-62
2023/06/28 01:28:02;;;;;;;11.30;3.28;;;;;;;21.25;82.29;101357.00;7363918;19;20047;-61
2023/06/28 01:30:29;;;;;;;9.10;3.30;;;;;;;21.26;81.99;101353.31;7363878;19;20059;-61
2023/06/28 01:32:57;;;;;;;13.90;4.18;;;;;;;21.25;82.01;101353.50;7362384;19;20498;-63
2023/06/28 01:35:25;;;;;;;13.50;3.97;;;;;;;21.23;82.48;101355.59;7360238;19;20747;-62
2023/06/28 01:37:53;;;;;;;9.65;3.60;;;;;;;21.23;82.20;101356.38;7364340;19;21054;-62
2023/06/28 01:40:20;;;;;;;14.80;4.00;;;;;;;21.19;82.36;101351.66;7364998;19;20006;-62
2023/06/28 01:42:48;;;;;;;9.07;3.83;;;;;;;21.19;82.72;101355.16;7364249;19;20118;-61
2023/06/28 01:45:15;;;;;;;9.82;3.75;;;;;;;21.16;82.83;101357.44;7364245;19;20395;-61
2023/06/28 01:47:43;;;;;;;12.07;3.83;;;;;;;21.20;83.07;101347.94;7365370;19;21829;-63
2023/06/28 01:50:10;;;;;;;13.60;4.03;;;;;;;21.23;83.32;101360.94;7362781;19;20014;-61
2023/06/28 01:52:38;;;;;;;13.07;4.72;;;;;;;21.26;82.84;101352.47;7370163;19;20745;-62
2023/06/28 01:55:06;;;;;;;12.90;4.47;;;;;;;21.25;82.69;101356.19;7373570;19;20089;-62
2023/06/28 01:57:33;;;;;;;17.52;4.00;;;;;;;21.18;82.73;101358.84;7371159;19;20022;-60
2023/06/28 02:00:07;;;;;;;14.38;4.00;;;;;;;21.17;83.27;101348.38;7369287;19;20010;-62
2023/06/28 02:02:35;;;;;;;10.13;4.15;;;;;;;21.13;83.14;101344.44;7364519;19;20014;-61
2023/06/28 02:05:03;;;;;;;11.65;3.63;;;;;;;21.13;83.36;101345.25;7370891;19;20011;-62
2023/06/28 02:07:31;;;;;;;11.73;3.70;;;;;;;21.17;83.58;101346.53;7373159;19;20022;-62
2023/06/28 02:10:01;;;;;;;13.20;4.10;;;;;;;21.20;83.17;101342.59;7371030;19;20010;-60
2023/06/28 02:12:38;;;;;;;12.75;4.28;;;;;;;21.18;82.80;101336.66;7373338;19;20047;-62
2023/06/28 02:15:06;;;;;;;18.13;4.35;;;;;;;21.15;82.99;101329.84;7370964;19;20018;-61
2023/06/28 02:17:35;;;;;;;12.05;3.95;;;;;;;21.11;83.63;101336.63;7369484;19;20015;-63
2023/06/28 02:20:04;;;;;;;11.25;4.60;;;;;;;21.08;83.58;101331.66;7372559;19;20014;-63
2023/06/28 02:22:31;;;;;;;13.88;3.97;;;;;;;21.09;83.86;101327.16;7373627;19;20037;-62
2023/06/28 02:24:58;;;;;;;12.25;3.45;;;;;;;21.10;83.85;101332.28;7372766;19;20573;-62
2023/06/28 02:27:26;;;;;;;8.25;3.80;;;;;;;21.12;83.85;101329.41;7369653;19;20029;-61
2023/06/28 02:29:53;;;;;;;10.30;4.00;;;;;;;21.11;83.53;101323.25;7361715;19;20049;-60
2023/06/28 02:32:20;;;;;;;12.77;3.80;;;;;;;21.11;83.41;101317.06;7337979;19;20039;-61
2023/06/28 02:34:48;;;;;;;16.33;4.28;;;;;;;21.13;83.98;101318.47;7365588;19;20022;-63
2023/06/28 02:37:15;;;;;;;15.50;4.60;;;;;;;21.12;83.70;101310.69;7354408;19;20011;-62
2023/06/28 02:39:42;;;;;;;8.52;3.78;;;;;;;21.13;83.82;101306.97;7365390;19;20015;-61
2023/06/28 02:42:10;;;;;;;12.65;4.45;;;;;;;21.13;83.91;101304.31;7370868;19;20031;-61
2023/06/28 02:44:37;;;;;;;14.25;4.95;;;;;;;21.12;83.75;101308.84;7367489;19;20014;-62
2023/06/28 02:47:04;;;;;;;11.20;4.60;;;;;;;21.12;84.43;101316.03;7367540;19;20018;-61
2023/06/28 02:49:32;;;;;;;12.90;4.75;;;;;;;21.17;83.99;101303.69;7368280;19;20057;-62
2023/06/28 02:51:59;;;;;;;12.85;4.57;;;;;;;21.16;83.85;101307.41;7367631;19;20395;-61
2023/06/28 02:54:26;;;;;;;12.68;4.63;;;;;;;21.18;83.51;101302.66;7366643;19;20566;-61
2023/06/28 02:56:54;;;;;;;15.48;4.50;;;;;;;21.16;83.58;101298.53;7370323;19;20006;-62
2023/06/28 02:59:21;;;;;;;10.57;4.07;;;;;;;21.13;84.12;101304.31;7364953;19;20027;-60
2023/06/28 03:01:49;;;;;;;14.52;5.00;;;;;;;21.11;84.26;101304.50;7364235;19;21113;-61
2023/06/28 03:04:16;;;;;;;9.85;4.18;;;;;;;21.10;84.38;101299.34;7363694;19;20050;-61
2023/06/28 03:06:48;;;;;;;11.10;4.35;;;;;;;21.07;84.48;101297.94;7371310;19;20014;-62
2023/06/28 03:09:15;;;;;;;15.30;4.63;;;;;;;21.05;84.61;101294.63;7366876;19;20015;-62
2023/06/28 03:11:42;;;;;;;12.48;4.85;;;;;;;21.07;84.34;101307.81;7364966;19;20046;-61
2023/06/28 03:14:09;;;;;;;14.63;4.63;;;;;;;21.06;84.20;101303.50;7367892;19;20045;-61
2023/06/28 03:16:37;;;;;;;13.73;5.53;;;;;;;21.06;84.42;101306.16;7364918;19;20010;-60
2023/06/28 03:19:08;;;;;;;11.77;4.57;;;;;;;21.06;85.21;101300.81;7361572;19;20011;-61
2023/06/28 03:21:35;;;;;;;11.05;4.53;;;;;;;21.10;85.00;101299.34;7366285;19;20022;-62
2023/06/28 03:24:03;;;;;;;13.13;6.18;;;;;;;21.13;84.70;101304.31;7370001;19;20339;-62
2023/06/28 03:26:30;;;;;;;10.38;4.57;;;;;;;21.13;84.31;101304.31;7366698;19;20025;-61
2023/06/28 03:28:58;;;;;;;13.65;4.72;;;;;;;21.09;84.75;101300.38;7367950;19;20403;-61
2023/06/28 03:31:25;;;;;;;14.77;5.13;;;;;;;21.03;84.45;101294.00;7365828;19;20010;-62
2023/06/28 03:33:53;;;;;;;15.57;6.45;;;;;;;21.02;84.67;101295.06;7366130;19;20014;-60
2023/06/28 03:36:20;;;;;;;16.58;6.25;;;;;;;21.03;84.90;101302.03;7362726;19;20010;-60
2023/06/28 03:38:47;;;;;;;11.82;4.85;;;;;;;21.06;84.80;101303.50;7368350;19;20025;-62
2023/06/28 03:41:15;;;;;;;12.88;5.03;;;;;;;21.05;84.56;101301.84;7366152;19;20134;-62
2023/06/28 03:43:42;;;;;;;12.23;5.32;;;;;;;21.03;85.03;101295.88;7367044;19;20098;-61
2023/06/28 03:46:10;;;;;;;16.48;5.93;;;;;;;21.04;84.71;101297.50;7366419;19;20058;-61
2023/06/28 03:48:37;;;;;;;13.68;5.43;;;;;;;21.08;84.82;101290.72;7363269;19;20015;-61
2023/06/28 03:51:04;;;;;;;14.15;6.38;;;;;;;21.11;85.38;101282.25;7364093;19;20082;-60
2023/06/28 03:53:32;;;;;;;16.20;5.90;;;;;;;21.12;85.92;101275.88;7366173;19;20025;-61
2023/06/28 03:55:59;;;;;;;13.90;5.50;;;;;;;21.12;85.72;101278.56;7368229;19;20025;-61
2023/06/28 03:58:27;;;;;;;10.93;5.40;;;;;;;21.08;85.66;101275.47;7366937;19;20023;-62
2023/06/28 04:00:54;;;;;;;16.05;5.60;;;;;;;21.05;85.67;101273.22;7368596;19;20022;-61
2023/06/28 04:03:21;;;;;;;16.02;5.93;;;;;;;21.04;86.04;101268.88;7363490;19;20034;-61
2023/06/28 04:05:49;;;;;;;12.73;5.90;;;;;;;21.08;87.65;101272.00;7360322;19;20747;-61
2023/06/28 04:08:16;;;;;;;15.00;6.00;;;;;;;21.06;86.81;101274.88;7358936;19;20019;-61
2023/06/28 04:10:44;;;;;;;14.82;5.80;;;;;;;21.04;85.94;101268.06;7338514;19;20019;-60
2023/06/28 04:13:11;;;;;;;11.93;5.32;;;;;;;21.02;86.08;101273.66;7359848;19;20017;-61
2023/06/28 04:15:39;;;;;;;15.68;6.35;;;;;;;21.00;86.10;101281.06;7359564;19;20011;-61
2023/06/28 04:18:06;;;;;;;12.93;5.70;;;;;;;20.98;85.93;101283.09;7362555;19;20007;-62
2023/06/28 04:20:33;;;;;;;13.52;6.20;;;;;;;20.97;86.51;101278.00;7364782;19;20011;-61
2023/06/28 04:23:00;;;;;;;15.18;6.05;;;;;;;20.96;86.48;101269.13;7366775;19;20360;-61
2023/06/28 04:25:28;;;;;;;16.60;6.10;;;;;;;20.97;86.49;101276.13;7361000;19;20041;-62
2023/06/28 04:27:55;;;;;;;14.68;6.70;;;;;;;20.99;86.36;101274.06;7364555;19;20030;-62
2023/06/28 04:30:24;;;;;;;13.00;5.35;;;;;;;21.00;86.31;101270.34;7362738;19;20002;-61
2023/06/28 04:32:52;;;;;;;11.68;5.35;;;;;;;21.02;85.99;101279.00;7366406;19;20023;-63
2023/06/28 04:35:21;;;;;;;11.43;6.07;;;;;;;21.03;85.97;101275.28;7365688;19;20030;-62
2023/06/28 04:37:50;;;;;;;11.57;5.93;;;;;;;21.04;85.83;101276.09;7364873;19;20022;-60
2023/06/28 04:40:17;;;;;;;12.70;5.80;;;;;;;21.02;85.25;101276.34;7361125;19;20014;-61
2023/06/28 04:42:44;;;;;;;15.63;5.85;;;;;;;21.02;85.09;101280.84;7366907;19;20015;-60
2023/06/28 04:45:11;;;;;;;13.93;6.60;;;;;;;21.02;85.24;101284.34;7360817;19;20494;-60
2023/06/28 04:47:39;;;;;;;14.27;5.43;;;;;;;21.04;85.22;101282.28;7363375;19;20045;-61
2023/06/28 04:50:07;;;;;;;12.50;5.95;;;;;;;21.08;85.24;101285.38;7365921;19;20011;-61
2023/06/28 04:52:35;;;;;;;13.00;6.50;;;;;;;21.10;85.09;101283.28;7369072;19;20018;-61
2023/06/28 04:55:02;;;;;;;13.73;6.05;;;;;;;21.13;84.84;101277.53;7373214;19;20015;-61
2023/06/28 04:57:29;;;;;;;13.15;6.18;;;;;;;21.14;84.16;101280.00;7372778;19;20059;-62
2023/06/28 04:59:57;;;;;;;12.40;5.47;;;;;;;21.16;84.13;101279.81;7363590;19;20150;-62
2023/06/28 05:02:25;;;;;;;13.68;6.30;;;;;;;21.17;84.24;101282.28;7365208;19;20018;-61
2023/06/28 05:04:53;;;;;;;18.58;6.85;;;;;;;21.20;83.91;101283.69;7371890;19;20014;-60
2023/06/28 05:07:20;;;;;;;12.65;5.88;;;;;;;21.19;83.77;101274.03;7369294;19;20023;-62
2023/06/28 05:09:48;;;;;;;12.13;6.30;;;;;;;21.16;83.90;101282.50;7367648;19;20014;-61
2023/06/28 05:12:15;;;;;;;14.32;6.53;;;;;;;21.17;84.50;101281.47;7372763;19;20014;-61
2023/06/28 05:14:43;;;;;;;12.38;5.65;;;;;;;21.17;84.01;101278.78;7369899;19;20050;-63
2023/06/28 05:17:10;;;;;;;15.15;6.85;;;;;;;21.19;84.12;101284.72;7369922;19;20021;-61
2023/06/28 05:19:37;;;;;;;15.98;6.97;;;;;;;21.18;84.29;101278.53;7371144;19;20018;-62
2023/06/28 05:22:05;;;;;;;14.32;6.63;;;;;;;21.19;83.93;101284.72;7370036;19;20045;-59
2023/06/28 05:24:32;;;;;;;15.27;6.18;;;;;;;21.22;83.64;101284.31;7369160;19;20022;-62
2023/06/28 05:26:59;;;;;;;12.07;5.82;;;;;;;21.21;83.88;101280.81;7372782;19;20025;-60
2023/06/28 05:29:27;;;;;;;15.68;6.65;;;;;;;21.23;84.14;101270.72;7370940;19;20019;-61
2023/06/28 05:31:57;;;;;;;14.15;7.00;;;;;;;21.19;84.11;101279.38;7374898;19;20046;-62
2023/06/28 05:34:25;;;;;;;14.93;6.20;;;;;;;21.19;84.08;101279.38;7370740;19;20015;-60
2023/06/28 05:36:53;;;;;;;14.23;6.65;;;;;;;21.19;84.14;101282.06;7374402;19;20022;-62
2023/06/28 05:39:20;;;;;;;13.63;6.95;;;;;;;21.18;83.88;101283.09;7368891;19;20026;-61
2023/06/28 05:41:48;;;;;;;15.13;6.57;;;;;;;21.19;84.03;101284.72;7373881;19;20018;-62
2023/06/28 05:44:20;;;;;;;14.68;6.25;;;;;;;21.20;84.02;101284.53;7366469;19;20022;-61
2023/06/28 05:46:49;;;;;;;14.48;6.60;;;;;;;21.25;84.15;101283.88;7362488;19;20010;-62
2023/06/28 05:49:16;;;;;;;16.02;6.32;;;;;;;21.25;83.45;101286.56;7368226;19;20015;-61
2023/06/28 05:51:43;;;;;;;12.13;6.22;;;;;;;21.26;83.59;101283.69;7367621;19;20010;-62
2023/06/28 05:54:10;;;;;;;14.73;6.45;;;;;;;21.28;83.81;101283.47;7367615;19;20014;-62
2023/06/28 05:56:38;;;;;;;13.30;6.05;;;;;;;21.27;83.88;101281.84;7368279;19;20019;-62
2023/06/28 05:59:05;;;;;;;15.57;6.55;;;;;;;21.25;84.22;101279.38;7367697;19;20021;-61
2023/06/28 06:01:32;;;;;;;12.20;6.18;;;;;;;21.23;84.03;101281.41;7364330;19;20018;-61
2023/06/28 06:03:59;;;;;;;12.50;6.40;;;;;;;21.22;83.65;101284.31;7357095;19;20142;-61
2023/06/28 06:06:27;;;;;;;12.85;6.88;;;;;;;21.21;84.07;101282.69;7332565;19;20019;-62
2023/06/28 06:08:54;;;;;;;11.27;6.55;;;;;;;21.23;83.96;101288.66;7360308;19;20011;-62
2023/06/28 06:11:25;;;;;;;11.68;5.90;;;;;;;21.24;83.78;101284.91;7364182;19;20042;-65
2023/06/28 06:13:53;;;;;;;12.07;5.90;;;;;;;21.27;83.93;101289.88;7364658;19;20026;-62
2023/06/28 06:16:20;;;;;;;12.02;6.05;;;;;;;21.25;83.52;101287.41;7362147;19;20813;-63
2023/06/28 06:18:47;;;;;;;13.60;5.90;;;;;;;21.27;83.57;101282.66;7361527;19;20042;-61
2023/06/28 06:21:15;;;;;;;13.20;5.90;;;;;;;21.29;83.98;101293.13;7362308;19;20029;-61
2023/06/28 06:23:42;;;;;;;11.15;5.80;;;;;;;21.29;83.69;101282.44;7362530;19;20025;-61
2023/06/28 06:26:09;;;;;;;12.95;6.43;;;;;;;21.35;84.16;101292.28;7360651;19;20656;-61
2023/06/28 06:28:37;;;;;;;14.27;6.03;;;;;;;21.33;83.49;101292.50;7362389;19;20054;-62
2023/06/28 06:31:04;;;;;;;9.93;5.72;;;;;;;21.35;83.37;101289.63;7361497;19;21142;-61
2023/06/28 06:33:35;;;;;;;9.85;5.70;;;;;;;21.36;83.25;101293.13;7358703;19;20006;-62
2023/06/28 06:36:02;;;;;;;10.65;5.18;;;;;;;21.36;83.23;101293.13;7362955;19;20022;-61
2023/06/28 06:38:30;;;;;;;11.10;5.40;;;;;;;21.34;83.18;101294.16;7359476;19;20028;-62
2023/06/28 06:40:57;;;;;;;12.82;5.47;;;;;;;21.34;83.32;101294.16;7362758;19;20019;-61
2023/06/28 06:43:24;;;;;;;11.20;5.43;;;;;;;21.37;83.14;101292.09;7361159;19;20018;-61
2023/06/28 06:45:52;;;;;;;8.13;4.93;;;;;;;21.35;83.00;101289.63;7352500;19;20022;-61
2023/06/28 06:48:19;;;;;;;12.55;5.78;;;;;;;21.37;83.18;101284.88;7358872;19;20085;-61
2023/06/28 06:50:46;;;;;;;10.20;5.40;;;;;;;21.41;83.16;101291.44;7359394;19;20734;-61
2023/06/28 06:53:14;;;;;;;13.00;6.28;;;;;;;21.44;83.17;101282.97;7363560;19;20011;-61
2023/06/28 06:55:41;;;;;;;10.23;6.05;;;;;;;21.46;82.72;101280.94;7362310;19;20471;-62
2023/06/28 06:58:09;;;;;;;13.63;6.28;;;;;;;21.47;83.11;101293.28;7362438;19;20011;-62
2023/06/28 07:00:37;;;;;;;15.52;7.03;;;;;;;21.48;83.10;101283.41;7361056;19;20015;-62
2023/06/28 07:03:04;;;;;;;11.70;6.60;;;;;;;21.46;83.40;101288.13;7359626;19;20056;-61
2023/06/28 07:05:32;;;;;;;13.23;6.15;;;;;;;21.50;83.67;101295.53;7359255;19;20023;-62
2023/06/28 07:07:59;;;;;;;16.30;6.25;;;;;;;21.53;83.24;101313.03;7358455;19;20420;-62
2023/06/28 07:10:27;;;;;;;13.95;6.40;;;;;;;21.53;82.93;101307.69;7360955;19;20054;-62
2023/06/28 07:12:54;;;;;;;13.68;5.65;;;;;;;21.51;83.33;101305.22;7362147;19;20046;-61
2023/06/28 07:15:22;;;;;;;13.07;6.30;;;;;;;21.50;82.91;101306.25;7358293;19;20494;-62
2023/06/28 07:17:53;;;;;;;11.77;5.75;;;;;;;21.45;83.16;101316.78;7359202;19;20026;-62
2023/06/28 07:20:21;;;;;;;13.85;6.53;;;;;;;21.44;83.40;101303.59;7363806;19;20043;-61
2023/06/28 07:22:48;;;;;;;14.77;6.75;;;;;;;21.48;83.94;101307.50;7362962;19;20698;-61
2023/06/28 07:25:16;;;;;;;14.23;6.85;;;;;;;21.49;84.16;101301.91;7361703;19;20017;-63
2023/06/28 07:27:43;;;;;;;15.32;6.30;;;;;;;21.51;84.14;101305.22;7361020;19;20387;-61
2023/06/28 07:30:11;;;;;;;13.20;5.70;;;;;;;21.51;83.69;101304.38;7359493;19;20037;-61
2023/06/28 07:32:39;;;;;;;13.82;6.53;;;;;;;21.50;83.32;101308.09;7354478;19;20018;-60
2023/06/28 07:35:13;;;;;;;11.93;6.18;;;;;;;21.49;83.51;101309.13;7360893;19;20007;-61
2023/06/28 07:37:41;;;;;;;13.73;5.95;;;;;;;21.47;83.49;101309.34;7358648;19;20521;-62
2023/06/28 07:40:09;;;;;;;12.82;6.55;;;;;;;21.50;83.89;101308.91;7360124;19;20106;-62
2023/06/28 07:42:37;;;;;;;13.20;6.47;;;;;;;21.50;84.39;101313.44;7360898;19;20006;-61
2023/06/28 07:45:05;;;;;;;15.93;6.38;;;;;;;21.47;83.93;101316.56;7359159;19;20024;-60
2023/06/28 07:47:32;;;;;;;14.10;6.65;;;;;;;21.42;83.85;101316.38;7359063;19;20147;-62
2023/06/28 07:50:00;;;;;;;17.02;7.57;;;;;;;21.40;83.80;101315.75;7360800;19;20030;-61
2023/06/28 07:52:27;;;;;;;13.02;6.88;;;;;;;21.37;83.96;101305.47;7360548;19;20665;-62
2023/06/28 07:54:55;;;;;;;14.85;6.70;;;;;;;21.36;84.08;101315.38;7359974;19;20014;-61
2023/06/28 07:57:22;;;;;;;11.60;6.15;;;;;;;21.40;83.87;101318.44;7361694;19;20543;-61
2023/06/28 07:59:51;;;;;;;13.73;6.25;;;;;;;21.42;84.18;101314.53;7357347;19;20047;-62
2023/06/28 08:02:18;;;;;;;15.38;7.13;;;;;;;21.43;83.81;101318.84;7358807;19;20010;-61
2023/06/28 08:04:46;;;;;;;15.00;6.10;;;;;;;21.42;84.34;101322.56;7358972;19;20869;-61
2023/06/28 08:07:13;;;;;;;15.25;6.47;;;;;;;21.43;84.65;101318.84;7358244;19;20110;-60
2023/06/28 08:09:41;;;;;;;17.25;6.75;;;;;;;21.45;84.53;101324.81;7359114;19;20010;-62
2023/06/28 08:12:09;;;;;;;14.55;6.60;;;;;;;21.49;84.31;101325.19;7359134;19;20422;-60
2023/06/28 08:14:36;;;;;;;18.15;7.53;;;;;;;21.50;84.57;101322.31;7359567;19;20014;-62
2023/06/28 08:17:04;;;;;;;22.35;11.82;;;;;;;21.57;84.81;101320.44;7358487;19;20014;-61
2023/06/28 08:19:31;;;;;;;49.97;13.82;;;;;;;21.66;84.84;101323.69;7358116;19;21129;-61
2023/06/28 08:21:59;;;;;;;36.28;11.10;;;;;;;21.68;84.63;101327.81;7359592;19;20042;-62
2023/06/28 08:24:27;;;;;;;44.10;11.77;;;;;;;21.72;84.42;101328.19;7359096;19;20011;-67
2023/06/28 08:26:54;;;;;;;29.40;9.68;;;;;;;21.73;83.85;101330.69;7357817;19;20015;-61
2023/06/28 08:29:22;;;;;;;38.75;10.27;;;;;;;21.75;84.45;101327.75;7360653;19;20424;-61
2023/06/28 08:31:50;;;;;;;30.95;9.27;;;;;;;21.74;84.08;101326.09;7357981;19;20060;-61
2023/06/28 08:34:18;;;;;;;33.22;9.43;;;;;;;21.70;84.22;101327.56;7357537;19;20704;-61
2023/06/28 08:36:45;;;;;;;45.13;12.00;;;;;;;21.65;84.32;101332.75;7359187;19;20030;-62
2023/06/28 08:39:13;;;;;;;54.28;12.65;;;;;;;21.64;84.67;101331.09;7358248;19;20051;-62
2023/06/28 08:41:41;;;;;;;52.53;13.13;;;;;;;21.64;85.17;101331.09;7358498;19;20019;-62
2023/06/28 08:44:13;;;;;;;73.35;18.80;;;;;;;21.67;84.90;101323.47;7359651;19;20046;-61
2023/06/28 08:46:44;;;;;;;68.43;17.63;;;;;;;21.70;85.33;101324.91;7356268;19;20010;-61
2023/06/28 08:49:14;;;;;;;37.95;10.70;;;;;;;21.70;84.96;101324.91;7356848;19;20833;-62
2023/06/28 08:51:41;;;;;;;40.80;10.88;;;;;;;21.73;85.64;101319.97;7359365;19;20029;-61
2023/06/28 08:54:11;;;;;;;69.45;19.00;;;;;;;21.78;85.08;101322.00;7357859;19;20029;-61
2023/06/28 08:56:40;;;;;;;51.22;12.93;;;;;;;21.81;85.20;101310.00;7358055;19;20018;-61
2023/06/28 08:59:25;;;;;;;20.95;6.63;;;;;;;21.82;84.51;101312.47;7359374;19;20002;-63
2023/06/28 09:01:55;;;;;;;35.15;10.23;;;;;;;21.85;84.16;101308.53;7354681;19;20506;-61
2023/06/28 09:04:24;;;;;;;43.00;12.00;;;;;;;21.90;84.01;101301.50;7343124;19;20023;-61
2023/06/28 09:06:52;;;;;;;37.83;10.73;;;;;;;21.96;84.10;101305.22;7355599;19;20106;-61
2023/06/28 09:09:20;;;;;;;36.40;10.27;;;;;;;21.99;84.23;101307.47;7358151;19;20014;-61
2023/06/28 09:11:48;;;;;;;66.90;15.73;;;;;;;22.02;83.86;101307.84;7358697;19;20021;-62
2023/06/28 09:14:15;;;;;;;68.82;16.20;;;;;;;22.06;83.66;101305.56;7356890;19;20040;-63
2023/06/28 09:16:43;;;;;;;65.78;17.10;;;;;;;22.06;83.60;101301.03;7356268;19;20087;-61
2023/06/28 09:19:10;;;;;;;49.85;13.32;;;;;;;22.09;83.31;101307.81;7356915;19;20096;-61
2023/06/28 09:21:40;;;;;;;48.30;11.63;;;;;;;22.10;82.94;101298.72;7358569;19;20081;-61
2023/06/28 09:24:12;;;;;;;61.80;16.25;;;;;;;22.15;82.69;101299.72;7358963;19;20019;-62
2023/06/28 09:26:44;;;;;;;47.15;12.35;;;;;;;22.18;82.56;101301.16;7355896;19;20062;-61
2023/06/28 09:29:12;;;;;;;19.05;7.15;;;;;;;22.20;82.32;101300.94;7356854;19;20018;-60
2023/06/28 09:31:43;;;;;;;14.68;5.50;;;;;;;22.21;82.33;101313.28;7356893;19;20027;-61
2023/06/28 09:34:11;;;;;;;11.13;5.13;;;;;;;22.22;82.39;101306.88;7357888;19;20015;-61
2023/06/28 09:36:38;;;;;;;14.57;5.20;;;;;;;22.24;82.65;101312.88;7356888;19;20010;-60
2023/06/28 09:39:08;;;;;;;13.73;5.40;;;;;;;22.24;82.90;101304.81;7363728;19;20018;-62
2023/06/28 09:41:39;;;;;;;11.05;5.47;;;;;;;22.25;83.20;101312.63;7365571;19;20724;-61
2023/06/28 09:44:09;;;;;;;8.52;4.60;;;;;;;22.25;82.66;101304.59;7364220;19;20019;-61
2023/06/28 09:46:43;;;;;;;10.25;4.38;;;;;;;22.25;82.97;101307.28;7361046;19;20014;-62
2023/06/28 09:49:17;;;;;;;6.45;4.38;;;;;;;22.26;83.11;101308.09;7363101;19;21174;-62
2023/06/28 09:51:45;;;;;;;8.90;4.57;;;;;;;22.24;83.56;101304.81;7365323;19;20612;-60
2023/06/28 09:54:13;;;;;;;7.57;3.75;;;;;;;22.19;83.76;101308.16;7363668;19;20014;-61
2023/06/28 09:56:41;;;;;;;10.45;4.45;;;;;;;22.14;84.52;101299.94;7365313;19;20110;-61
2023/06/28 09:59:09;;;;;;;9.10;4.20;;;;;;;22.13;84.31;101299.13;7363612;19;20361;-61
2023/06/28 10:01:53;;;;;;;11.95;4.53;;;;;;;22.12;84.91;101294.78;7364423;19;21867;-61
2023/06/28 10:04:21;;;;;;;11.95;5.28;;;;;;;22.15;85.21;101291.66;7363637;19;20015;-61
2023/06/28 10:06:51;;;;;;;7.13;3.85;;;;;;;22.20;85.29;101300.94;7362889;19;20035;-62
2023/06/28 10:09:22;;;;;;;9.80;4.65;;;;;;;22.21;85.04;101287.28;7364156;19;20019;-62
2023/06/28 10:11:50;;;;;;;7.43;3.95;;;;;;;22.22;85.04;101293.47;7365555;19;20025;-61
2023/06/28 10:14:20;;;;;;;10.50;4.03;;;;;;;22.25;85.26;101288.50;7364817;19;20101;-62
2023/06/28 10:16:49;;;;;;;10.07;3.42;;;;;;;22.29;84.87;101297.78;7362696;19;20025;-66
2023/06/28 10:19:17;;;;;;;8.20;3.30;;;;;;;22.31;85.13;101298.34;7362267;19;20014;-61
2023/06/28 10:21:44;;;;;;;9.55;3.65;;;;;;;22.32;85.06;101305.38;7362881;19;20018;-66
2023/06/28 10:24:12;;;;;;;6.57;3.50;;;;;;;22.31;84.77;101311.75;7364491;19;20093;-65
2023/06/28 10:26:41;;;;;;;7.25;3.35;;;;;;;22.27;84.64;101299.00;7361272;19;20018;-66
2023/06/28 10:29:09;;;;;;;6.70;3.30;;;;;;;22.24;84.65;101302.97;7362425;19;20023;-65
2023/06/28 10:31:37;;;;;;;6.72;3.58;;;;;;;22.24;85.00;101310.19;7362719;19;20014;-66
2023/06/28 10:34:07;;;;;;;6.35;3.22;;;;;;;22.24;85.69;101294.91;7361403;19;20913;-66
2023/06/28 10:36:34;;;;;;;6.13;3.22;;;;;;;22.24;85.25;101308.34;7361830;19;20026;-65
2023/06/28 10:39:03;;;;;;;7.30;3.70;;;;;;;22.23;84.84;101309.38;7361541;19;20090;-65
2023/06/28 10:41:30;;;;;;;8.25;4.13;;;;;;;22.24;84.88;101312.88;7363488;19;20021;-65
2023/06/28 10:44:04;;;;;;;9.40;3.90;;;;;;;22.27;84.95;101313.25;7363820;19;20011;-65
2023/06/28 10:46:32;;;;;;;11.75;4.22;;;;;;;22.26;85.22;101308.91;7361556;19;20777;-66
2023/06/28 10:49:03;;;;;;;8.30;4.43;;;;;;;22.26;85.81;101306.22;7360033;19;20011;-66
2023/06/28 10:51:33;;;;;;;10.15;4.13;;;;;;;22.27;86.22;101313.25;7359236;19;20014;-65
2023/06/28 10:54:06;;;;;;;10.23;4.20;;;;;;;22.25;86.61;101311.84;7362469;19;20043;-66
2023/06/28 10:56:40;;;;;;;8.45;4.30;;;;;;;22.18;87.31;101311.88;7361118;19;20018;-65
2023/06/28 10:59:08;;;;;;;7.22;4.20;;;;;;;22.15;88.25;101312.28;7362231;19;20062;-65
2023/06/28 11:01:36;;;;;;;8.82;4.20;;;;;;;;;;7326957;19;20070;-68
2023/06/28 11:04:10;;;;;;;7.35;4.07;;;;;;;22.11;89.56;101308.41;7356688;19;20338;-64
2023/06/28 11:06:39;;;;;;;8.57;4.18;;;;;;;22.13;89.76;101312.53;7357937;19;20082;-66
2023/06/28 11:09:14;;;;;;;11.25;4.75;;;;;;;22.17;90.34;101305.69;7360080;19;20074;-66
2023/06/28 11:11:46;;;;;;;11.25;4.53;;;;;;;22.22;90.29;101312.25;7362419;19;20026;-65
2023/06/28 11:14:20;;;;;;;7.95;4.43;;;;;;;22.28;90.12;101303.34;7361497;19;20039;-67
2023/06/28 11:16:48;;;;;;;9.50;4.43;;;;;;;22.33;89.24;101307.03;7360869;19;20616;-64
2023/06/28 11:19:18;;;;;;;10.07;4.95;;;;;;;22.39;88.33;101306.16;7360731;19;20048;-64
2023/06/28 11:21:51;;;;;;;14.63;4.65;;;;;;;22.44;87.85;101294.75;7360368;19;20029;-64
2023/06/28 11:24:24;;;;;;;9.23;5.03;;;;;;;22.47;87.37;101289.78;7361380;19;20090;-65